sensor_id;sensor_type;location;lat;lon;timestamp;P1;durP1;ratioP1;P2;durP2;ratioP2
60430;SDS011;46285;45.122;20.726;2023-02-28T00:07:57;43.42;;;28.40;;
60430;SDS011;46285;45.122;20.726;2023-02-28T00:17:58;45.75;;;29.80;;
60430;SDS011;46285;45.122;20.726;2023-02-28T00:27:59;43.35;;;26.58;;
60430;SDS011;46285;45.122;20.726;2023-02-28T00:38:00;44.50;;;26.45;;
60430;SDS011;46285;45.122;20.726;2023-02-28T00:48:02;41.55;;;23.95;;
60430;SDS011;46285;45.122;20.726;2023-02-28T00:58:03;34.88;;;23.15;;
60430;SDS011;46285;45.122;20.726;2023-02-28T01:08:04;39.88;;;23.55;;
60430;SDS011;46285;45.122;20.726;2023-02-28T01:18:05;34.22;;;20.40;;
60430;SDS011;46285;45.122;20.726;2023-02-28T01:28:06;35.42;;;22.60;;
60430;SDS011;46285;45.122;20.726;2023-02-28T01:38:09;34.42;;;20.95;;
60430;SDS011;46285;45.122;20.726;2023-02-28T01:48:10;29.88;;;19.60;;
60430;SDS011;46285;45.122;20.726;2023-02-28T01:58:13;39.20;;;21.73;;
60430;SDS011;46285;45.122;20.726;2023-02-28T02:08:21;37.03;;;23.35;;
60430;SDS011;46285;45.122;20.726;2023-02-28T02:39:02;33.08;;;20.42;;
60430;SDS011;46285;45.122;20.726;2023-02-28T02:49:08;35.25;;;21.02;;
60430;SDS011;46285;45.122;20.726;2023-02-28T02:59:11;34.67;;;21.90;;
60430;SDS011;46285;45.122;20.726;2023-02-28T03:09:14;38.17;;;24.35;;
60430;SDS011;46285;45.122;20.726;2023-02-28T03:19:28;45.80;;;27.77;;
60430;SDS011;46285;45.122;20.726;2023-02-28T03:29:42;49.38;;;30.92;;
60430;SDS011;46285;45.122;20.726;2023-02-28T03:39:47;52.53;;;31.95;;
60430;SDS011;46285;45.122;20.726;2023-02-28T03:49:57;50.37;;;30.67;;
60430;SDS011;46285;45.122;20.726;2023-02-28T04:00:02;47.17;;;27.60;;
60430;SDS011;46285;45.122;20.726;2023-02-28T04:10:12;50.35;;;28.25;;
60430;SDS011;46285;45.122;20.726;2023-02-28T04:20:14;48.63;;;30.35;;
60430;SDS011;46285;45.122;20.726;2023-02-28T04:30:15;56.40;;;34.58;;
60430;SDS011;46285;45.122;20.726;2023-02-28T04:40:17;54.65;;;31.30;;
60430;SDS011;46285;45.122;20.726;2023-02-28T04:50:18;52.38;;;33.28;;
60430;SDS011;46285;45.122;20.726;2023-02-28T05:00:20;73.88;;;40.30;;
60430;SDS011;46285;45.122;20.726;2023-02-28T05:10:21;59.22;;;32.13;;
60430;SDS011;46285;45.122;20.726;2023-02-28T05:20:23;49.97;;;31.45;;
60430;SDS011;46285;45.122;20.726;2023-02-28T05:30:24;57.47;;;34.95;;
60430;SDS011;46285;45.122;20.726;2023-02-28T05:40:25;50.88;;;31.92;;
60430;SDS011;46285;45.122;20.726;2023-02-28T05:50:26;57.17;;;34.40;;
60430;SDS011;46285;45.122;20.726;2023-02-28T06:00:27;81.68;;;47.25;;
60430;SDS011;46285;45.122;20.726;2023-02-28T06:10:28;73.28;;;44.17;;
60430;SDS011;46285;45.122;20.726;2023-02-28T06:20:30;127.10;;;63.50;;
60430;SDS011;46285;45.122;20.726;2023-02-28T06:30:31;86.28;;;53.45;;
60430;SDS011;46285;45.122;20.726;2023-02-28T06:40:32;193.52;;;83.47;;
60430;SDS011;46285;45.122;20.726;2023-02-28T06:50:33;114.75;;;60.40;;
60430;SDS011;46285;45.122;20.726;2023-02-28T07:00:37;87.93;;;50.75;;
60430;SDS011;46285;45.122;20.726;2023-02-28T07:10:38;113.90;;;61.03;;
60430;SDS011;46285;45.122;20.726;2023-02-28T07:20:39;93.22;;;51.28;;
60430;SDS011;46285;45.122;20.726;2023-02-28T07:30:41;105.40;;;60.45;;
60430;SDS011;46285;45.122;20.726;2023-02-28T07:40:42;99.82;;;50.13;;
60430;SDS011;46285;45.122;20.726;2023-02-28T07:50:43;113.88;;;57.67;;
60430;SDS011;46285;45.122;20.726;2023-02-28T08:00:44;99.95;;;52.25;;
60430;SDS011;46285;45.122;20.726;2023-02-28T08:10:47;109.38;;;50.15;;
60430;SDS011;46285;45.122;20.726;2023-02-28T08:20:48;110.22;;;55.45;;
60430;SDS011;46285;45.122;20.726;2023-02-28T08:30:49;157.57;;;77.70;;
60430;SDS011;46285;45.122;20.726;2023-02-28T08:40:56;189.20;;;86.03;;
60430;SDS011;46285;45.122;20.726;2023-02-28T08:50:58;140.57;;;63.35;;
60430;SDS011;46285;45.122;20.726;2023-02-28T09:01:06;197.60;;;84.57;;
60430;SDS011;46285;45.122;20.726;2023-02-28T09:11:08;115.60;;;57.42;;
60430;SDS011;46285;45.122;20.726;2023-02-28T09:21:13;127.95;;;71.80;;
60430;SDS011;46285;45.122;20.726;2023-02-28T09:31:19;78.22;;;42.75;;
60430;SDS011;46285;45.122;20.726;2023-02-28T09:41:25;63.43;;;38.60;;
60430;SDS011;46285;45.122;20.726;2023-02-28T09:51:28;72.40;;;42.57;;
60430;SDS011;46285;45.122;20.726;2023-02-28T10:01:34;110.40;;;63.97;;
60430;SDS011;46285;45.122;20.726;2023-02-28T10:11:37;84.68;;;53.60;;
60430;SDS011;46285;45.122;20.726;2023-02-28T10:21:44;54.33;;;33.42;;
60430;SDS011;46285;45.122;20.726;2023-02-28T10:31:47;66.03;;;40.85;;
60430;SDS011;46285;45.122;20.726;2023-02-28T10:41:48;88.60;;;57.42;;
60430;SDS011;46285;45.122;20.726;2023-02-28T10:51:54;50.92;;;33.15;;
60430;SDS011;46285;45.122;20.726;2023-02-28T11:01:56;56.83;;;35.95;;
60430;SDS011;46285;45.122;20.726;2023-02-28T11:12:00;74.95;;;44.15;;
60430;SDS011;46285;45.122;20.726;2023-02-28T11:22:07;113.95;;;66.45;;
60430;SDS011;46285;45.122;20.726;2023-02-28T11:42:23;111.53;;;65.28;;
60430;SDS011;46285;45.122;20.726;2023-02-28T12:02:46;84.28;;;54.22;;
60430;SDS011;46285;45.122;20.726;2023-02-28T12:23:03;49.83;;;31.05;;
60430;SDS011;46285;45.122;20.726;2023-02-28T12:33:10;76.43;;;46.27;;
60430;SDS011;46285;45.122;20.726;2023-02-28T12:43:13;97.32;;;59.78;;
60430;SDS011;46285;45.122;20.726;2023-02-28T12:53:23;60.85;;;36.15;;
60430;SDS011;46285;45.122;20.726;2023-02-28T13:03:37;44.97;;;29.45;;
60430;SDS011;46285;45.122;20.726;2023-02-28T13:14:16;65.35;;;36.33;;
60430;SDS011;46285;45.122;20.726;2023-02-28T13:34:40;77.72;;;46.47;;
60430;SDS011;46285;45.122;20.726;2023-02-28T13:45:20;55.80;;;36.72;;
60430;SDS011;46285;45.122;20.726;2023-02-28T13:55:19;69.38;;;42.65;;
60430;SDS011;46285;45.122;20.726;2023-02-28T14:05:25;65.22;;;37.25;;
60430;SDS011;46285;45.122;20.726;2023-02-28T14:15:28;46.30;;;31.98;;
60430;SDS011;46285;45.122;20.726;2023-02-28T14:36:03;70.05;;;45.85;;
60430;SDS011;46285;45.122;20.726;2023-02-28T14:46:05;63.90;;;41.13;;
60430;SDS011;46285;45.122;20.726;2023-02-28T14:56:16;56.13;;;31.95;;
60430;SDS011;46285;45.122;20.726;2023-02-28T15:06:18;59.92;;;36.92;;
60430;SDS011;46285;45.122;20.726;2023-02-28T15:16:20;128.43;;;73.82;;
60430;SDS011;46285;45.122;20.726;2023-02-28T15:26:24;64.18;;;38.72;;
60430;SDS011;46285;45.122;20.726;2023-02-28T15:36:31;66.03;;;42.72;;
60430;SDS011;46285;45.122;20.726;2023-02-28T15:46:32;106.70;;;68.88;;
60430;SDS011;46285;45.122;20.726;2023-02-28T15:56:34;85.55;;;53.38;;
60430;SDS011;46285;45.122;20.726;2023-02-28T16:06:37;105.15;;;71.97;;
60430;SDS011;46285;45.122;20.726;2023-02-28T16:16:41;84.88;;;59.28;;
60430;SDS011;46285;45.122;20.726;2023-02-28T16:26:44;95.13;;;64.07;;
60430;SDS011;46285;45.122;20.726;2023-02-28T16:36:46;93.85;;;58.83;;
60430;SDS011;46285;45.122;20.726;2023-02-28T16:46:48;105.72;;;64.00;;
60430;SDS011;46285;45.122;20.726;2023-02-28T16:56:49;137.57;;;76.57;;
60430;SDS011;46285;45.122;20.726;2023-02-28T17:06:50;116.13;;;61.70;;
60430;SDS011;46285;45.122;20.726;2023-02-28T17:16:51;140.35;;;81.85;;
60430;SDS011;46285;45.122;20.726;2023-02-28T17:26:52;122.57;;;67.20;;
60430;SDS011;46285;45.122;20.726;2023-02-28T17:36:53;140.15;;;72.72;;
60430;SDS011;46285;45.122;20.726;2023-02-28T17:46:55;179.20;;;89.88;;
60430;SDS011;46285;45.122;20.726;2023-02-28T17:56:56;208.40;;;97.45;;
60430;SDS011;46285;45.122;20.726;2023-02-28T18:06:57;197.98;;;77.75;;
60430;SDS011;46285;45.122;20.726;2023-02-28T18:16:58;223.23;;;103.35;;
60430;SDS011;46285;45.122;20.726;2023-02-28T18:26:59;362.83;;;143.38;;
60430;SDS011;46285;45.122;20.726;2023-02-28T18:37:00;316.48;;;113.05;;
60430;SDS011;46285;45.122;20.726;2023-02-28T18:47:02;227.82;;;85.65;;
60430;SDS011;46285;45.122;20.726;2023-02-28T18:57:03;207.45;;;100.75;;
60430;SDS011;46285;45.122;20.726;2023-02-28T19:07:06;277.48;;;122.65;;
60430;SDS011;46285;45.122;20.726;2023-02-28T19:17:07;248.68;;;104.82;;
60430;SDS011;46285;45.122;20.726;2023-02-28T19:27:08;363.67;;;136.20;;
60430;SDS011;46285;45.122;20.726;2023-02-28T19:37:10;274.75;;;107.40;;
60430;SDS011;46285;45.122;20.726;2023-02-28T19:47:11;302.88;;;117.63;;
60430;SDS011;46285;45.122;20.726;2023-02-28T19:57:13;254.57;;;106.90;;
60430;SDS011;46285;45.122;20.726;2023-02-28T20:07:15;211.50;;;93.72;;
60430;SDS011;46285;45.122;20.726;2023-02-28T20:17:16;234.00;;;97.47;;
60430;SDS011;46285;45.122;20.726;2023-02-28T20:27:17;206.90;;;88.18;;
60430;SDS011;46285;45.122;20.726;2023-02-28T20:37:18;161.60;;;86.30;;
60430;SDS011;46285;45.122;20.726;2023-02-28T20:47:19;165.10;;;85.07;;
60430;SDS011;46285;45.122;20.726;2023-02-28T20:57:20;133.82;;;71.00;;
60430;SDS011;46285;45.122;20.726;2023-02-28T21:07:21;180.13;;;93.65;;
60430;SDS011;46285;45.122;20.726;2023-02-28T21:17:23;174.93;;;75.82;;
60430;SDS011;46285;45.122;20.726;2023-02-28T21:27:24;150.25;;;78.40;;
60430;SDS011;46285;45.122;20.726;2023-02-28T21:37:25;200.88;;;79.82;;
60430;SDS011;46285;45.122;20.726;2023-02-28T21:47:29;95.10;;;51.08;;
60430;SDS011;46285;45.122;20.726;2023-02-28T21:57:30;101.75;;;53.92;;
60430;SDS011;46285;45.122;20.726;2023-02-28T22:07:32;104.45;;;54.75;;
60430;SDS011;46285;45.122;20.726;2023-02-28T22:17:33;120.88;;;61.42;;
60430;SDS011;46285;45.122;20.726;2023-02-28T22:27:34;123.88;;;59.05;;
60430;SDS011;46285;45.122;20.726;2023-02-28T22:37:36;83.47;;;44.72;;
60430;SDS011;46285;45.122;20.726;2023-02-28T22:47:37;87.22;;;47.22;;
60430;SDS011;46285;45.122;20.726;2023-02-28T22:57:38;84.53;;;48.95;;
60430;SDS011;46285;45.122;20.726;2023-02-28T23:07:40;127.85;;;62.15;;
60430;SDS011;46285;45.122;20.726;2023-02-28T23:17:41;127.13;;;63.47;;
60430;SDS011;46285;45.122;20.726;2023-02-28T23:27:42;82.38;;;49.17;;
60430;SDS011;46285;45.122;20.726;2023-02-28T23:37:44;89.18;;;48.85;;
60430;SDS011;46285;45.122;20.726;2023-02-28T23:47:45;75.50;;;45.05;;
60430;SDS011;46285;45.122;20.726;2023-02-28T23:57:46;83.45;;;47.53;;
